Time;durP1;ratioP1;P1;durP2;ratioP2;P2;SDS_P1;SDS_P2;PMS_P1;PMS_P2;Temp;Humidity;BMP_temperature;BMP_pressure;BME280_temperature;BME280_humidity;BME280_pressure;Samples;Min_cycle;Max_cycle;Signal;HPM_P1;HPM_P2
2021/05/06 00:02:30;;;;;;;2.25;1.95;;;;;;;11.82;75.25;92938.31;5090287;28;20024;-50
2021/05/06 00:32:31;;;;;;;2.22;1.58;;;;;;;11.07;76.15;92992.19;5073649;28;20044;-52
2021/05/06 00:34:56;;;;;;;2.10;1.90;;;;;;;10.79;75.89;92982.22;5090000;28;20031;-51
2021/05/06 00:37:22;;;;;;;1.40;1.30;;;;;;;10.91;75.85;92997.09;5090209;28;20418;-49
2021/05/06 00:39:56;;;;;;;2.53;2.33;;;;;;;10.83;76.43;92995.66;5089694;28;20039;-47
2021/05/06 01:05:45;;;;;;;1.48;1.38;;;;;;;10.83;74.62;92995.66;5093461;28;20023;-49
2021/05/06 01:11:09;;;;;;;6.25;1.80;;;;;;;10.54;75.44;92998.75;5105290;28;20043;-45
2021/05/06 01:13:36;;;;;;;1.88;1.65;;;;;;;10.43;75.26;92993.66;5112878;28;20027;-45
2021/05/06 01:16:02;;;;;;;1.75;1.65;;;;;;;10.19;76.16;93005.34;5113794;28;20024;-45
2021/05/06 01:18:30;;;;;;;5.90;2.30;;;;;;;10.01;77.28;93009.22;5114158;28;20024;-45
2021/05/06 01:20:59;;;;;;;2.25;1.60;;;;;;;10.29;76.60;93006.22;5113620;28;20048;-48
2021/05/06 01:23:29;;;;;;;2.75;0.98;;;;;;;10.30;76.42;93012.47;5093374;28;20032;-46
2021/05/06 01:25:59;;;;;;;1.38;1.10;;;;;;;10.28;76.49;93009.53;5111851;28;20062;-50
2021/05/06 01:28:28;;;;;;;6.25;1.70;;;;;;;10.32;76.16;93012.66;5114030;28;20079;-50
2021/05/06 01:31:02;;;;;;;3.67;1.52;;;;;;;10.32;75.50;93015.41;5113885;28;20046;-49
2021/05/06 01:33:52;;;;;;;2.45;1.58;;;;;;;10.20;75.56;93017.13;5113948;28;20035;-50
2021/05/06 01:36:18;;;;;;;0.85;0.85;;;;;;;9.77;76.17;92996.03;5113147;28;20034;-49
2021/05/06 02:00:03;;;;;;;2.25;1.70;;;;;;;9.80;75.90;93030.78;5113381;28;20030;-48
2021/05/06 02:02:29;;;;;;;1.58;1.25;;;;;;;9.59;76.86;93042.00;5113128;28;20023;-48
2021/05/06 02:04:54;;;;;;;1.70;1.60;;;;;;;9.64;76.89;93043.09;5113188;28;20648;-50
2021/05/06 02:07:19;;;;;;;4.38;1.45;;;;;;;9.50;76.83;93039.06;5113423;28;20023;-47
2021/05/06 02:09:47;;;;;;;2.58;2.03;;;;;;;9.55;77.09;93049.19;5113475;28;20027;-50
2021/05/06 02:12:14;;;;;;;3.40;1.67;;;;;;;9.33;77.21;93044.41;5113343;28;20027;-47
2021/05/06 02:14:44;;;;;;;3.13;2.00;;;;;;;9.27;77.58;93036.28;5113281;28;20110;-48
2021/05/06 02:17:09;;;;;;;2.85;1.38;;;;;;;9.47;77.21;93048.44;5112563;27;20484;-48
2021/05/06 02:19:38;;;;;;;1.98;1.10;;;;;;;8.90;78.38;93053.53;5112836;28;20031;-48
2021/05/06 02:22:05;;;;;;;1.30;1.20;;;;;;;9.18;78.19;93044.38;5102753;27;20057;-51
2021/05/06 02:24:31;;;;;;;1.58;1.48;;;;;;;9.20;77.90;93044.56;5099160;28;20030;-48
2021/05/06 02:26:57;;;;;;;1.42;1.25;;;;;;;9.10;77.89;93027.84;5112607;28;20016;-49
2021/05/06 02:29:22;;;;;;;1.52;1.40;;;;;;;9.18;77.64;93052.66;5111196;28;20054;-50
2021/05/06 02:31:48;;;;;;;2.05;1.70;;;;;;;9.25;77.73;93057.44;5112379;28;20047;-49
2021/05/06 02:34:13;;;;;;;1.42;1.33;;;;;;;9.05;77.70;93051.50;5112362;28;20031;-52
2021/05/06 02:36:38;;;;;;;1.45;1.33;;;;;;;9.12;77.82;93045.28;5103274;28;20035;-48
2021/05/06 02:39:04;;;;;;;2.40;1.48;;;;;;;9.04;77.92;93046.56;5109384;28;20026;-48
2021/05/06 02:41:30;;;;;;;1.23;1.10;;;;;;;9.10;77.69;93060.88;5112232;28;20038;-45
2021/05/06 02:43:55;;;;;;;1.85;1.35;;;;;;;9.29;76.48;93063.31;5102570;28;20030;-47
2021/05/06 02:46:21;;;;;;;1.33;1.23;;;;;;;9.21;77.20;93071.56;5092152;28;20081;-48
2021/05/06 02:48:46;;;;;;;1.55;1.45;;;;;;;9.11;76.88;93063.09;5090518;28;20028;-46
2021/05/06 02:51:12;;;;;;;2.13;1.10;;;;;;;9.14;76.60;93061.25;5092095;28;20051;-48
2021/05/06 02:53:45;;;;;;;1.33;1.23;;;;;;;9.13;76.27;93062.56;5091556;28;20034;-48
2021/05/06 03:04:00;;;;;;;2.05;1.88;;;;;;;9.15;76.37;93085.50;5111966;28;20519;-48
2021/05/06 03:06:27;;;;;;;0.82;0.77;;;;;;;9.15;77.01;93087.53;5112192;28;20434;-52
2021/05/06 03:09:06;;;;;;;1.08;0.98;;;;;;;9.06;75.93;93041.97;5111840;28;20086;-46
2021/05/06 03:25:02;;;;;;;11.80;1.42;;;;;;;9.42;75.08;93096.91;5091018;28;20046;-52
2021/05/06 03:27:31;;;;;;;1.20;1.10;;;;;;;9.28;75.69;93101.13;5091045;28;20032;-51
2021/05/06 03:32:56;;;;;;;0.70;0.70;;;;;;;9.00;76.17;93099.25;5091080;28;20028;-49
2021/05/06 04:18:35;;;;;;;1.77;1.10;;;;;;;10.75;73.54;93185.47;5090761;28;20024;-48
2021/05/06 04:29:43;;;;;;;1.00;0.90;;;;;;;12.47;65.51;93191.38;5089833;28;20056;-50
2021/05/06 04:37:11;;;;;;;1.35;1.25;;;;;;;13.78;63.14;93199.13;5089759;28;20483;-49
2021/05/06 04:39:53;;;;;;;1.13;1.00;;;;;;;14.15;62.10;93192.31;5090004;28;20028;-53
2021/05/06 04:55:33;;;;;;;15.88;4.85;;;;;;;14.73;59.70;93204.34;5089806;28;20030;-50
2021/05/06 05:03:37;;;;;;;1.35;1.10;;;;;;;14.15;60.34;93208.22;5089685;28;20566;-52
2021/05/06 05:06:03;;;;;;;0.45;0.45;;;;;;;14.38;59.72;93209.38;5089788;28;20093;-50
2021/05/06 05:08:35;;;;;;;2.28;1.15;;;;;;;14.78;59.39;93213.72;5089673;28;20110;-52
2021/05/06 05:24:45;;;;;;;1.30;0.73;;;;;;;16.68;54.01;93237.88;5102299;28;20023;-54
2021/05/06 05:27:10;;;;;;;4.10;1.55;;;;;;;17.12;51.68;93236.59;5098439;28;20041;-53
2021/05/06 05:29:35;;;;;;;2.08;0.93;;;;;;;17.79;49.63;93244.50;5098552;28;20040;-50
2021/05/06 05:32:01;;;;;;;1.35;0.65;;;;;;;18.49;47.73;93239.84;5100217;28;20032;-51
2021/05/06 05:36:55;;;;;;;0.85;0.70;;;;;;;17.20;48.09;93234.34;5109586;28;20100;-50
2021/05/06 05:55:24;;;;;;;1.05;0.90;;;;;;;17.15;54.18;93258.44;5100859;28;20085;-48
2021/05/06 05:57:51;;;;;;;2.30;1.15;;;;;;;17.67;51.28;93263.97;5098105;28;20024;-54
2021/05/06 06:00:18;;;;;;;0.80;0.70;;;;;;;18.06;48.94;93259.53;5090638;28;20043;-54
2021/05/06 06:02:44;;;;;;;1.00;0.45;;;;;;;18.50;48.01;93255.28;5101792;28;20057;-55
2021/05/06 06:05:10;;;;;;;2.10;1.40;;;;;;;18.79;46.87;93258.47;5111357;28;20044;-55
2021/05/06 06:07:35;;;;;;;2.22;0.90;;;;;;;18.98;45.74;93249.09;5105662;28;20472;-54
2021/05/06 06:10:01;;;;;;;1.08;0.52;;;;;;;19.17;43.44;93266.38;5095616;28;20111;-54
2021/05/06 06:12:27;;;;;;;0.90;0.57;;;;;;;19.04;44.04;93253.00;5111329;28;20027;-54
2021/05/06 06:15:04;;;;;;;0.40;0.40;;;;;;;18.83;44.74;93265.06;5110486;28;20034;-53
2021/05/06 06:17:34;;;;;;;1.73;1.30;;;;;;;18.55;44.82;93270.97;5110610;28;20515;-54
2021/05/06 06:20:01;;;;;;;3.33;1.85;;;;;;;17.58;47.41;93250.84;5102799;28;20530;-53
2021/05/06 06:22:29;;;;;;;0.90;0.80;;;;;;;17.59;48.20;93280.22;5101772;28;20475;-52
2021/05/06 06:24:54;;;;;;;1.30;1.15;;;;;;;18.05;47.62;93277.63;5110212;28;20080;-54
2021/05/06 06:27:21;;;;;;;2.30;1.70;;;;;;;18.15;46.87;93280.31;5110043;27;20023;-54
2021/05/06 06:29:46;;;;;;;0.40;0.40;;;;;;;17.92;47.40;93269.81;5109712;28;20062;-54
2021/05/06 06:32:16;;;;;;;0.70;0.63;;;;;;;18.44;46.96;93257.69;5110442;28;20106;-53
2021/05/06 06:34:41;;;;;;;2.65;0.60;;;;;;;20.25;44.76;93274.03;5110459;28;20024;-50
2021/05/06 06:37:07;;;;;;;1.67;0.77;;;;;;;21.45;39.60;93279.78;5110470;28;20066;-52
2021/05/06 06:39:33;;;;;;;0.57;0.52;;;;;;;20.77;38.99;93282.50;5110459;28;20544;-51
2021/05/06 06:41:58;;;;;;;5.00;0.63;;;;;;;20.01;41.12;93284.56;5107038;28;20286;-53
2021/05/06 06:44:29;;;;;;;1.20;1.00;;;;;;;19.16;42.48;93290.13;5095953;28;20155;-53
2021/05/06 06:47:02;;;;;;;1.52;0.90;;;;;;;19.32;43.42;93291.06;5089707;28;20028;-53
2021/05/06 06:49:34;;;;;;;1.42;0.98;;;;;;;20.02;43.41;93299.31;5088611;28;20028;-53
2021/05/06 06:52:01;;;;;;;0.98;0.77;;;;;;;20.19;42.71;93308.03;5089092;28;20039;-51
2021/05/06 06:54:27;;;;;;;0.95;0.60;;;;;;;20.59;41.13;93306.78;5089569;28;20102;-53
2021/05/06 06:56:53;;;;;;;1.23;0.80;;;;;;;21.32;40.41;93296.63;5089362;28;20036;-54
2021/05/06 06:59:18;;;;;;;2.13;0.70;;;;;;;22.21;38.24;93307.50;5089444;28;20517;-55
2021/05/06 07:01:44;;;;;;;0.75;0.75;;;;;;;23.02;36.57;93304.34;5089730;28;20027;-51
2021/05/06 07:04:10;;;;;;;2.75;0.30;;;;;;;23.71;34.11;93304.59;5088154;28;20028;-51
2021/05/06 07:06:37;;;;;;;0.65;0.43;;;;;;;23.83;33.94;93305.13;5088964;28;20034;-53
2021/05/06 07:09:03;;;;;;;1.63;0.77;;;;;;;23.31;30.93;93297.91;5089512;28;20028;-53
2021/05/06 07:11:28;;;;;;;1.73;0.60;;;;;;;22.41;33.05;93288.78;5090872;28;20077;-53
2021/05/06 07:13:54;;;;;;;0.75;0.57;;;;;;;23.17;34.76;93286.00;5109450;28;20039;-50
2021/05/06 07:16:19;;;;;;;1.00;0.93;;;;;;;24.02;31.35;93288.31;5108676;28;20024;-51
2021/05/06 07:18:45;;;;;;;0.50;0.50;;;;;;;25.09;29.48;93281.34;5109148;28;20114;-51
2021/05/06 07:21:10;;;;;;;1.05;0.50;;;;;;;26.78;28.18;93281.59;5109080;28;20035;-50
2021/05/06 07:23:36;;;;;;;2.42;0.65;;;;;;;26.71;25.53;93288.44;5109174;28;20024;-53
2021/05/06 07:26:02;;;;;;;0.50;0.50;;;;;;;24.33;30.15;93281.13;5089533;27;20020;-49
2021/05/06 07:28:39;;;;;;;3.47;2.35;;;;;;;23.75;31.52;93288.59;5088771;28;20020;-49
2021/05/06 07:31:06;;;;;;;6.72;2.40;;;;;;;23.77;32.74;93294.31;5090033;28;20036;-48
2021/05/06 07:33:32;;;;;;;1.35;1.00;;;;;;;23.36;32.56;93296.75;5101202;28;20183;-49
2021/05/06 07:35:59;;;;;;;2.15;0.80;;;;;;;22.21;35.58;93294.16;5109627;28;20567;-49
2021/05/06 07:38:24;;;;;;;2.13;1.40;;;;;;;23.01;31.51;93291.63;5109312;28;20053;-50
2021/05/06 07:40:50;;;;;;;0.73;0.60;;;;;;;23.89;32.85;93289.19;5105538;28;20519;-50
2021/05/06 07:43:17;;;;;;;6.22;3.28;;;;;;;25.97;31.48;93300.06;5104981;28;20047;-49
2021/05/06 07:45:43;;;;;;;2.22;0.93;;;;;;;27.31;27.03;93271.84;5108846;28;20018;-51
2021/05/06 07:48:08;;;;;;;3.30;2.15;;;;;;;27.75;25.26;93296.53;5108820;28;20031;-52
2021/05/06 07:50:34;;;;;;;9.30;0.80;;;;;;;26.26;28.50;93299.69;5107865;28;20495;-48
2021/05/06 07:53:12;;;;;;;2.95;2.08;;;;;;;25.36;29.46;93308.47;5108552;28;20023;-48
2021/05/06 07:55:37;;;;;;;0.98;0.80;;;;;;;24.55;31.52;93298.97;5108698;28;20024;-48
2021/05/06 07:58:04;;;;;;;1.75;0.68;;;;;;;24.12;31.01;93293.69;5108819;28;20024;-52
2021/05/06 08:00:30;;;;;;;1.80;0.77;;;;;;;23.82;32.33;93303.69;5105583;28;20031;-48
2021/05/06 08:02:56;;;;;;;2.95;1.23;;;;;;;25.13;31.44;93301.25;5107798;28;20032;-51
2021/05/06 08:05:23;;;;;;;8.82;5.05;;;;;;;26.61;28.58;93307.22;5108194;28;20098;-48
2021/05/06 08:07:49;;;;;;;0.93;0.70;;;;;;;27.94;26.25;93303.44;5105358;28;20038;-52
2021/05/06 08:10:16;;;;;;;1.83;1.20;;;;;;;28.90;24.60;93293.88;5106546;28;20035;-48
2021/05/06 08:12:42;;;;;;;0.90;0.80;;;;;;;29.34;24.96;93284.91;5105890;28;20039;-47
2021/05/06 08:15:10;;;;;;;5.45;0.80;;;;;;;30.56;23.23;93303.72;5106742;28;20667;-49
2021/05/06 08:17:40;;;;;;;0.80;0.80;;;;;;;31.31;21.25;93297.09;5101278;28;20031;-50
2021/05/06 08:20:07;;;;;;;4.68;4.20;;;;;;;31.89;20.49;93280.03;5107352;28;20059;-50
2021/05/06 08:22:34;;;;;;;3.08;1.33;;;;;;;32.45;20.60;93303.53;5094157;28;20031;-46
2021/05/06 08:24:59;;;;;;;2.13;1.02;;;;;;;32.40;19.86;93296.31;5087092;28;20090;-48
2021/05/06 08:27:25;;;;;;;0.52;0.45;;;;;;;32.52;19.79;93301.47;5087126;28;20024;-48
2021/05/06 08:29:50;;;;;;;1.40;0.77;;;;;;;31.59;20.49;93311.06;5086496;28;20051;-49
2021/05/06 08:32:16;;;;;;;1.17;0.90;;;;;;;31.88;20.34;93310.72;5086357;28;20032;-47
2021/05/06 08:34:41;;;;;;;1.92;0.70;;;;;;;32.33;20.37;93314.84;5085630;28;20043;-47
2021/05/06 08:37:07;;;;;;;1.42;1.00;;;;;;;31.28;20.87;93322.03;5086208;28;20016;-52
2021/05/06 08:39:32;;;;;;;2.67;1.10;;;;;;;30.62;20.71;93310.22;5086419;28;20027;-51
2021/05/06 08:41:59;;;;;;;0.70;0.60;;;;;;;30.52;21.43;93323.59;5086778;28;20027;-49
2021/05/06 08:44:29;;;;;;;1.23;0.77;;;;;;;31.85;21.29;93326.41;5088149;28;20024;-48
2021/05/06 08:47:05;;;;;;;1.50;1.00;;;;;;;32.38;20.55;93316.31;5089333;28;20019;-50
2021/05/06 08:49:32;;;;;;;0.50;0.40;;;;;;;32.72;19.82;93325.28;5090051;28;20050;-50
2021/05/06 08:51:59;;;;;;;0.82;0.80;;;;;;;32.89;18.86;93321.13;5089595;28;20016;-47
2021/05/06 08:54:25;;;;;;;0.85;0.65;;;;;;;32.89;19.08;93315.41;5096414;28;20019;-48
2021/05/06 08:56:51;;;;;;;2.67;1.13;;;;;;;31.20;21.43;93304.78;5099997;28;20031;-48
2021/05/06 08:59:17;;;;;;;0.82;0.70;;;;;;;32.16;19.91;93316.78;5089315;28;20035;-45
2021/05/06 09:01:42;;;;;;;1.70;0.68;;;;;;;33.08;18.49;93309.84;5087669;28;20016;-48
2021/05/06 09:04:08;;;;;;;0.98;0.70;;;;;;;33.42;18.43;93312.94;5087635;28;20028;-47
2021/05/06 09:06:33;;;;;;;2.97;0.60;;;;;;;33.54;17.99;93302.34;5087454;28;20020;-47
2021/05/06 09:09:04;;;;;;;1.00;0.90;;;;;;;33.18;17.74;93315.66;5087235;28;20028;-49
2021/05/06 09:11:37;;;;;;;1.15;0.80;;;;;;;33.97;17.78;93306.13;5087333;28;20488;-48
2021/05/06 09:14:08;;;;;;;0.90;0.60;;;;;;;33.69;17.85;93313.84;5087189;28;20032;-47
2021/05/06 09:16:42;;;;;;;1.30;0.50;;;;;;;33.14;17.59;93315.63;5087427;28;20505;-48
2021/05/06 09:19:12;;;;;;;0.77;0.57;;;;;;;33.69;17.11;93325.31;5087500;28;20505;-48
2021/05/06 09:21:43;;;;;;;0.63;0.32;;;;;;;33.71;18.24;93316.72;5094018;28;20023;-48
2021/05/06 09:24:10;;;;;;;0.95;0.80;;;;;;;33.40;17.69;93321.53;5103496;28;20027;-49
2021/05/06 09:26:40;;;;;;;1.88;0.50;;;;;;;33.65;18.17;93331.75;5087684;28;20051;-50
2021/05/06 09:29:08;;;;;;;0.38;0.38;;;;;;;33.88;18.21;93313.25;5091008;28;20131;-48
2021/05/06 09:31:39;;;;;;;0.70;0.55;;;;;;;33.84;17.87;93326.81;5091445;28;20039;-47
2021/05/06 09:34:06;;;;;;;1.05;0.73;;;;;;;32.99;18.40;93334.06;5091378;28;20418;-48
2021/05/06 09:36:32;;;;;;;2.42;1.30;;;;;;;32.59;19.62;93340.88;5101599;28;20030;-48
2021/05/06 09:38:59;;;;;;;0.57;0.50;;;;;;;33.36;18.06;93330.81;5111594;28;20061;-48
2021/05/06 09:41:28;;;;;;;0.52;0.52;;;;;;;33.17;17.79;93328.53;5111314;28;20028;-47
2021/05/06 09:43:53;;;;;;;2.53;1.02;;;;;;;33.85;17.10;93334.00;5111419;28;20039;-47
2021/05/06 09:46:26;;;;;;;0.85;0.52;;;;;;;33.88;17.67;93330.44;5111244;28;20032;-50
2021/05/06 09:48:59;;;;;;;0.90;0.45;;;;;;;33.16;17.46;93336.38;5111271;28;20037;-49
2021/05/06 09:51:31;;;;;;;0.60;0.60;;;;;;;33.06;17.04;93341.31;5111319;28;20035;-47
2021/05/06 09:53:57;;;;;;;0.63;0.50;;;;;;;32.79;17.38;93320.34;5110926;28;20156;-47
2021/05/06 09:56:26;;;;;;;2.03;0.70;;;;;;;33.11;17.96;93326.34;5111269;27;20035;-50
2021/05/06 09:58:54;;;;;;;0.32;0.30;;;;;;;33.61;16.71;93329.56;5109822;28;20020;-46
2021/05/06 10:01:20;;;;;;;0.35;0.30;;;;;;;32.73;16.88;93320.25;5111120;28;20023;-50
2021/05/06 10:03:45;;;;;;;1.05;0.40;;;;;;;32.46;17.34;93333.56;5110895;28;20106;-46
2021/05/06 10:06:13;;;;;;;0.98;0.40;;;;;;;32.82;16.88;93336.06;5111047;28;20020;-48
2021/05/06 10:08:39;;;;;;;0.40;0.32;;;;;;;33.17;16.37;93332.09;5110897;28;20535;-49
2021/05/06 10:11:08;;;;;;;0.52;0.30;;;;;;;34.21;15.44;93319.84;5110491;27;20110;-48
2021/05/06 10:13:35;;;;;;;0.60;0.40;;;;;;;34.52;14.85;93320.69;5111766;28;20038;-47
2021/05/06 10:16:01;;;;;;;0.35;0.28;;;;;;;33.08;15.43;93286.97;5109691;28;20054;-48
2021/05/06 10:18:27;;;;;;;2.47;1.38;;;;;;;33.55;14.84;93314.50;5104802;28;20024;-48
2021/05/06 10:20:52;;;;;;;1.80;0.40;;;;;;;34.20;15.78;93313.41;5103819;28;20031;-49
2021/05/06 10:23:18;;;;;;;1.13;0.50;;;;;;;34.58;16.11;93321.41;5105140;28;20055;-49
2021/05/06 10:25:44;;;;;;;0.70;0.40;;;;;;;33.63;15.32;93314.56;5088571;28;20031;-48
2021/05/06 10:28:10;;;;;;;0.38;0.20;;;;;;;31.81;16.45;93323.50;5089227;28;20090;-50
2021/05/06 10:30:36;;;;;;;0.52;0.30;;;;;;;30.10;18.26;93319.94;5090944;28;20052;-49
2021/05/06 10:33:01;;;;;;;0.47;0.47;;;;;;;29.21;17.90;93313.09;5091548;28;20028;-49
2021/05/06 10:35:27;;;;;;;0.50;0.50;;;;;;;28.88;20.45;93321.50;5089299;28;20130;-49
2021/05/06 10:37:56;;;;;;;0.57;0.57;;;;;;;29.74;21.13;93305.69;5110319;28;20044;-48
2021/05/06 10:40:23;;;;;;;1.05;0.73;;;;;;;29.44;21.17;93317.16;5110875;28;20458;-51
2021/05/06 10:42:50;;;;;;;1.73;0.50;;;;;;;29.00;21.31;93324.66;5110555;28;20036;-49
2021/05/06 10:45:16;;;;;;;0.80;0.45;;;;;;;28.60;22.41;93323.66;5105824;28;20030;-47
2021/05/06 10:47:49;;;;;;;0.98;0.70;;;;;;;27.93;22.13;93330.38;5096734;28;20024;-49
2021/05/06 10:50:16;;;;;;;0.68;0.38;;;;;;;27.23;22.88;93331.13;5089930;28;20032;-48
2021/05/06 10:52:55;;;;;;;0.40;0.30;;;;;;;28.29;23.32;93314.34;5089713;28;20059;-49
2021/05/06 10:55:56;;;;;;;0.40;0.40;;;;;;;30.13;20.80;93319.28;5097352;28;20480;-48
2021/05/06 10:58:27;;;;;;;2.05;0.30;;;;;;;31.17;18.50;93319.69;5108843;28;20023;-50
2021/05/06 11:01:12;;;;;;;0.30;0.20;;;;;;;31.97;17.63;93328.69;5109836;28;20031;-46
2021/05/06 11:03:38;;;;;;;1.95;0.30;;;;;;;31.02;16.59;93329.44;5109911;28;20024;-50
2021/05/06 11:06:04;;;;;;;1.05;0.90;;;;;;;29.86;17.87;93338.00;5110128;27;20024;-50
2021/05/06 11:08:31;;;;;;;1.35;0.52;;;;;;;29.30;18.21;93324.66;5109969;28;20039;-50
2021/05/06 11:10:57;;;;;;;0.75;0.30;;;;;;;29.00;19.89;93316.84;5105039;28;20023;-51
2021/05/06 11:13:28;;;;;;;0.20;0.20;;;;;;;28.64;19.65;93318.06;5099448;28;20096;-51
2021/05/06 11:16:16;;;;;;;0.28;0.28;;;;;;;29.69;18.99;93321.94;5097882;28;20035;-49
2021/05/06 11:18:49;;;;;;;0.80;0.43;;;;;;;29.37;19.62;93326.22;5089507;28;20023;-51
2021/05/06 11:21:29;;;;;;;2.05;0.30;;;;;;;29.94;17.70;93329.63;5088220;28;20019;-47
2021/05/06 11:24:25;;;;;;;14.00;1.17;;;;;;;29.94;18.05;93328.88;5087993;28;20139;-49
2021/05/06 11:27:10;;;;;;;0.25;0.20;;;;;;;28.88;18.49;93335.72;5088574;28;20107;-47
2021/05/06 11:29:38;;;;;;;3.30;0.47;;;;;;;28.35;19.66;93325.84;5094084;28;20051;-49
2021/05/06 11:32:04;;;;;;;0.50;0.50;;;;;;;28.50;18.88;93315.59;5089399;28;20028;-49
2021/05/06 11:34:31;;;;;;;0.20;0.20;;;;;;;28.53;18.43;93322.75;5090827;28;20415;-48
2021/05/06 11:37:07;;;;;;;0.25;0.15;;;;;;;28.17;19.95;93327.50;5108868;28;20400;-48
2021/05/06 11:39:32;;;;;;;0.98;0.40;;;;;;;27.71;20.43;93329.75;5109180;27;20027;-47
2021/05/06 11:41:57;;;;;;;0.82;0.20;;;;;;;27.63;19.84;93309.66;5105474;28;20035;-46
2021/05/06 11:44:23;;;;;;;2.25;0.38;;;;;;;27.60;20.61;93313.84;5088735;28;20678;-47
2021/05/06 11:46:48;;;;;;;0.30;0.20;;;;;;;27.61;19.16;93306.78;5088529;28;20121;-47
2021/05/06 11:49:17;;;;;;;0.45;0.30;;;;;;;27.29;20.06;93325.66;5088140;28;20028;-45
2021/05/06 11:51:44;;;;;;;6.45;0.50;;;;;;;27.07;20.85;93328.53;5088216;28;20028;-46
2021/05/06 11:54:19;;;;;;;0.35;0.30;;;;;;;26.89;20.48;93320.19;5088390;28;20455;-45
2021/05/06 11:56:57;;;;;;;0.40;0.40;;;;;;;27.02;20.61;93330.53;5088712;28;20084;-47
2021/05/06 11:59:25;;;;;;;0.28;0.28;;;;;;;26.59;19.77;93336.19;5087497;28;20027;-46
2021/05/06 12:01:51;;;;;;;2.58;0.50;;;;;;;26.23;22.08;93321.53;5088336;28;20504;-45
2021/05/06 12:04:36;;;;;;;0.75;0.63;;;;;;;26.02;21.61;93327.88;5088804;28;20059;-45
2021/05/06 12:07:16;;;;;;;0.85;0.40;;;;;;;26.17;23.11;93331.94;5088154;28;20024;-46
2021/05/06 12:09:42;;;;;;;0.55;0.40;;;;;;;25.99;20.86;93334.13;5088519;28;20035;-47
2021/05/06 12:12:08;;;;;;;0.40;0.40;;;;;;;25.79;21.66;93319.25;5088081;28;20446;-48
2021/05/06 12:14:38;;;;;;;1.35;0.95;;;;;;;25.63;22.27;93316.56;5087946;28;20028;-52
2021/05/06 12:17:04;;;;;;;4.80;2.60;;;;;;;25.56;21.58;93326.94;5087842;28;20035;-52
2021/05/06 12:19:42;;;;;;;2.17;0.77;;;;;;;25.25;21.40;93315.13;5087550;28;20032;-47
2021/05/06 12:22:15;;;;;;;0.57;0.57;;;;;;;25.05;21.48;93322.84;5098231;28;20036;-48
2021/05/06 12:24:45;;;;;;;1.45;0.50;;;;;;;25.04;21.44;93329.84;5098693;28;20492;-45
2021/05/06 12:27:25;;;;;;;3.63;0.32;;;;;;;24.95;22.20;93333.75;5099207;28;20018;-46
2021/05/06 12:30:11;;;;;;;1.17;0.63;;;;;;;25.09;22.79;93312.41;5105728;28;20047;-45
2021/05/06 12:32:40;;;;;;;0.40;0.40;;;;;;;24.94;22.29;93316.06;5098898;28;20019;-46
2021/05/06 12:35:05;;;;;;;1.35;0.38;;;;;;;24.87;22.56;93316.47;5089895;28;20031;-44
2021/05/06 12:37:32;;;;;;;0.30;0.30;;;;;;;24.73;22.43;93313.81;5093848;28;20024;-45
2021/05/06 12:39:58;;;;;;;0.30;0.30;;;;;;;24.44;21.40;93314.78;5094165;28;20038;-46
2021/05/06 12:42:34;;;;;;;18.55;10.02;;;;;;;24.66;21.44;93320.59;5102180;28;20023;-52
2021/05/06 12:45:02;;;;;;;3.10;2.03;;;;;;;24.49;23.13;93312.84;5097319;28;20106;-46
2021/05/06 12:47:29;;;;;;;0.63;0.47;;;;;;;24.18;21.72;93284.75;5087036;28;20447;-45
2021/05/06 12:50:14;;;;;;;2.58;0.50;;;;;;;24.44;22.41;93320.41;5108176;28;20409;-49
2021/05/06 12:52:42;;;;;;;8.68;3.13;;;;;;;24.35;22.47;93320.72;5107858;28;20455;-48
2021/05/06 12:55:16;;;;;;;12.75;5.25;;;;;;;24.20;23.40;93313.03;5106394;28;20036;-45
2021/05/06 12:57:46;;;;;;;1.38;1.27;;;;;;;24.17;23.72;93311.53;5092496;28;20047;-47
2021/05/06 13:00:22;;;;;;;6.90;3.00;;;;;;;24.16;25.47;93299.50;5087322;28;20063;-48
2021/05/06 13:02:48;;;;;;;1.00;0.30;;;;;;;23.49;23.39;93261.38;5086209;28;20032;-47
2021/05/06 13:05:34;;;;;;;0.85;0.50;;;;;;;23.72;24.40;93280.69;5093078;28;20231;-45
2021/05/06 13:08:00;;;;;;;0.28;0.20;;;;;;;23.82;24.04;93293.09;5102031;28;20145;-46
2021/05/06 13:10:29;;;;;;;1.40;0.68;;;;;;;23.88;24.06;93313.13;5107775;28;20027;-45
2021/05/06 13:12:55;;;;;;;0.65;0.40;;;;;;;23.39;23.58;93275.72;5107323;28;20039;-44
2021/05/06 13:15:20;;;;;;;0.30;0.30;;;;;;;23.35;23.66;93290.38;5097637;28;20168;-47
2021/05/06 13:17:46;;;;;;;0.50;0.50;;;;;;;23.41;22.70;93298.38;5107669;28;20092;-49
2021/05/06 13:20:14;;;;;;;0.35;0.35;;;;;;;23.58;25.27;93311.09;5107519;28;20030;-45
2021/05/06 13:22:40;;;;;;;0.50;0.50;;;;;;;23.72;25.01;93309.59;5092333;28;20027;-45
2021/05/06 13:25:07;;;;;;;0.60;0.60;;;;;;;23.81;22.96;93310.66;5094543;28;20039;-45
2021/05/06 13:27:32;;;;;;;1.02;0.35;;;;;;;23.71;23.96;93305.34;5107711;28;20034;-48
2021/05/06 13:30:02;;;;;;;0.75;0.40;;;;;;;23.63;23.30;93302.16;5106373;28;20048;-46
2021/05/06 13:32:41;;;;;;;0.35;0.20;;;;;;;23.71;23.39;93291.25;5089447;28;20516;-45
2021/05/06 13:35:15;;;;;;;0.60;0.40;;;;;;;23.67;24.69;93293.16;5086328;28;20034;-45
2021/05/06 13:37:43;;;;;;;0.35;0.35;;;;;;;23.77;24.38;93297.13;5095712;28;20085;-46
2021/05/06 13:40:10;;;;;;;8.45;0.98;;;;;;;23.62;23.69;93283.81;5087052;28;20436;-46
2021/05/06 13:42:37;;;;;;;1.48;1.20;;;;;;;23.71;22.43;93288.44;5102329;28;20078;-44
2021/05/06 13:45:04;;;;;;;1.40;1.00;;;;;;;23.54;23.61;93294.72;5105101;28;20028;-46
2021/05/06 13:47:29;;;;;;;4.95;1.77;;;;;;;23.56;23.79;93277.91;5090863;28;20049;-46
2021/05/06 13:49:55;;;;;;;8.68;2.15;;;;;;;23.56;24.88;93286.38;5099622;28;20500;-45
2021/05/06 13:52:24;;;;;;;0.45;0.40;;;;;;;23.52;24.13;93274.91;5097372;28;20031;-50
2021/05/06 13:54:51;;;;;;;1.00;0.60;;;;;;;23.46;24.42;93276.72;5091524;28;20390;-45
2021/05/06 13:57:17;;;;;;;4.03;2.22;;;;;;;23.47;24.34;93278.91;5103289;28;20114;-48
2021/05/06 13:59:43;;;;;;;2.55;1.67;;;;;;;23.38;25.35;93277.13;5090956;28;20575;-51
2021/05/06 14:02:08;;;;;;;0.43;0.40;;;;;;;23.45;24.30;93278.09;5097106;28;20110;-47
2021/05/06 14:04:34;;;;;;;0.52;0.52;;;;;;;23.45;24.21;93278.09;5094103;28;20566;-44
2021/05/06 14:07:00;;;;;;;1.40;1.25;;;;;;;23.41;25.25;93273.03;5102983;28;20045;-48
2021/05/06 14:09:25;;;;;;;1.05;0.40;;;;;;;23.36;24.84;93268.56;5090343;28;20114;-45
2021/05/06 14:11:51;;;;;;;0.22;0.22;;;;;;;23.35;24.21;93267.84;5101221;28;20200;-47
2021/05/06 14:14:18;;;;;;;0.88;0.50;;;;;;;23.13;25.35;93249.91;5102009;28;20038;-44
2021/05/06 14:16:43;;;;;;;0.40;0.40;;;;;;;23.34;26.38;93282.56;5094722;28;20043;-45
2021/05/06 14:19:12;;;;;;;0.95;0.70;;;;;;;23.31;25.39;93276.09;5106840;28;20035;-49
2021/05/06 14:21:39;;;;;;;0.65;0.65;;;;;;;23.24;24.25;93270.81;5100253;28;20031;-45
2021/05/06 14:24:06;;;;;;;0.85;0.82;;;;;;;22.98;25.60;93264.00;5105560;28;20035;-45
2021/05/06 14:26:32;;;;;;;0.60;0.60;;;;;;;22.96;25.01;93266.72;5102346;28;20023;-47
2021/05/06 14:28:58;;;;;;;2.45;0.70;;;;;;;22.90;27.22;93272.81;5093493;28;20048;-45
2021/05/06 14:31:23;;;;;;;0.40;0.40;;;;;;;22.93;27.09;93279.28;5106866;28;20081;-47
2021/05/06 14:33:49;;;;;;;0.40;0.40;;;;;;;23.07;28.55;93282.72;5095562;28;20031;-46
2021/05/06 14:36:15;;;;;;;0.55;0.47;;;;;;;23.06;27.48;93286.91;5100082;28;20020;-47
2021/05/06 14:38:41;;;;;;;2.15;0.80;;;;;;;22.83;28.99;93290.06;5096094;28;20035;-45
2021/05/06 14:41:08;;;;;;;0.60;0.47;;;;;;;22.71;28.42;93286.69;5098702;28;20038;-45
2021/05/06 14:43:33;;;;;;;0.65;0.55;;;;;;;22.66;29.97;93279.41;5088224;28;20055;-48
2021/05/06 14:45:59;;;;;;;0.82;0.82;;;;;;;22.67;30.75;93272.44;5099016;28;20071;-47
2021/05/06 14:48:25;;;;;;;0.73;0.68;;;;;;;22.74;31.10;93279.81;5092477;28;20110;-49
2021/05/06 14:50:51;;;;;;;0.57;0.57;;;;;;;22.68;30.31;93273.88;5103411;28;20527;-47
2021/05/06 14:53:16;;;;;;;0.68;0.60;;;;;;;22.51;29.71;93275.91;5092845;28;20024;-45
2021/05/06 14:55:42;;;;;;;0.63;0.60;;;;;;;22.46;30.99;93276.34;5109900;28;20024;-47
2021/05/06 14:58:07;;;;;;;0.73;0.73;;;;;;;22.42;30.69;93262.09;5108037;28;20484;-45
2021/05/06 15:00:35;;;;;;;0.98;0.63;;;;;;;22.46;31.32;93267.91;5097415;28;20462;-48
2021/05/06 15:03:02;;;;;;;1.13;1.02;;;;;;;22.34;32.44;93268.06;5106202;28;20736;-49
2021/05/06 15:05:28;;;;;;;1.17;1.08;;;;;;;22.24;32.17;93267.56;5092890;28;20027;-47
2021/05/06 15:07:55;;;;;;;2.00;1.77;;;;;;;22.18;32.22;93266.56;5101419;28;20671;-49